Time;durP1;ratioP1;P1;durP2;ratioP2;P2;SDS_P1;SDS_P2;PMS_P1;PMS_P2;Temp;Humidity;BMP_temperature;BMP_pressure;BME280_temperature;BME280_humidity;BME280_pressure;Samples;Min_cycle;Max_cycle;Signal;HPM_P1;HPM_P2
2022/12/24 05:28:07;;;;;;;1.25;0.80;;;;;;;10.25;100.00;100005.94;5132135;28;20133;-69
2022/12/24 05:30:32;;;;;;;2.50;1.20;;;;;;;10.25;100.00;100011.25;5132075;27;20073;-69
2022/12/24 05:32:58;;;;;;;3.35;1.15;;;;;;;10.29;100.00;100009.88;5132018;27;20483;-69
2022/12/24 05:35:23;;;;;;;3.63;1.13;;;;;;;10.35;100.00;100012.84;5130934;27;20027;-68
2022/12/24 05:37:48;;;;;;;5.15;1.70;;;;;;;10.35;100.00;100024.31;5131671;28;20039;-69
2022/12/24 05:40:14;;;;;;;3.40;1.13;;;;;;;10.36;100.00;100015.31;5131073;27;20040;-69
2022/12/24 05:42:39;;;;;;;3.03;1.05;;;;;;;10.38;100.00;100016.00;5130220;27;20078;-68
2022/12/24 05:45:05;;;;;;;1.83;1.20;;;;;;;10.40;100.00;100026.47;5131855;28;20040;-69
2022/12/24 05:47:31;;;;;;;3.47;1.25;;;;;;;10.44;100.00;100027.78;5131164;27;20156;-68
2022/12/24 05:49:56;;;;;;;2.33;0.80;;;;;;;10.45;100.00;100037.41;5130971;27;20522;-69
2022/12/24 05:52:21;;;;;;;4.05;1.48;;;;;;;10.44;100.00;100025.94;5128297;28;20507;-69
2022/12/24 05:54:47;;;;;;;9.68;1.38;;;;;;;10.46;100.00;100031.09;5128271;28;20047;-68
2022/12/24 05:57:12;;;;;;;8.93;1.83;;;;;;;10.49;100.00;100042.19;5131397;27;20043;-70
2022/12/24 05:59:37;;;;;;;4.80;1.77;;;;;;;10.49;100.00;100044.84;5131904;27;20046;-68
2022/12/24 06:02:03;;;;;;;6.60;2.00;;;;;;;10.48;100.00;100045.03;5131605;27;20031;-68
2022/12/24 06:04:28;;;;;;;2.20;0.75;;;;;;;10.52;100.00;100044.53;5131788;27;20042;-70
2022/12/24 06:06:54;;;;;;;5.90;1.65;;;;;;;10.50;100.00;100046.53;5129974;28;20046;-69
2022/12/24 06:09:19;;;;;;;5.28;1.17;;;;;;;10.52;100.00;100049.84;5130065;27;20035;-68
2022/12/24 06:11:44;;;;;;;5.18;1.88;;;;;;;10.53;100.00;100050.66;5129459;27;20386;-69
2022/12/24 06:14:10;;;;;;;3.60;1.10;;;;;;;10.53;100.00;100048.84;5128442;28;20050;-68
2022/12/24 06:16:36;;;;;;;4.75;1.42;;;;;;;10.52;100.00;100057.84;5128140;28;20047;-67
2022/12/24 06:19:01;;;;;;;3.45;1.20;;;;;;;10.52;100.00;100070.31;5130014;27;20031;-67
2022/12/24 06:21:26;;;;;;;7.78;1.17;;;;;;;10.44;100.00;100044.59;5111334;28;20063;-69
2022/12/24 06:23:52;;;;;;;2.75;1.00;;;;;;;10.56;100.00;100061.81;5128762;27;20034;-67
2022/12/24 06:26:21;;;;;;;1.08;0.95;;;;;;;10.59;100.00;100061.44;5129696;27;20051;-68
2022/12/24 06:28:48;;;;;;;2.78;1.10;;;;;;;10.63;100.00;100069.06;5130052;27;20114;-68
2022/12/24 06:31:16;;;;;;;5.30;1.17;;;;;;;10.59;100.00;100074.75;5129998;27;20039;-68
2022/12/24 06:33:41;;;;;;;8.55;1.73;;;;;;;10.67;100.00;100079.19;5118018;27;20385;-68
2022/12/24 06:36:20;;;;;;;3.40;1.30;;;;;;;10.65;100.00;100075.88;5097824;28;20091;-70
2022/12/24 06:38:46;;;;;;;3.53;1.30;;;;;;;10.66;100.00;100085.53;5111644;28;20027;-67
2022/12/24 06:41:13;;;;;;;4.07;1.13;;;;;;;10.66;100.00;100100.69;5094114;28;20338;-68
2022/12/24 06:43:39;;;;;;;2.95;1.50;;;;;;;10.65;100.00;100099.03;5094977;28;20044;-67
2022/12/24 06:46:04;;;;;;;4.65;1.42;;;;;;;10.65;100.00;100094.53;5094523;28;20028;-68
2022/12/24 06:48:30;;;;;;;6.20;1.20;;;;;;;10.64;100.00;100095.53;5094186;28;20135;-68
2022/12/24 06:50:55;;;;;;;3.78;0.88;;;;;;;10.62;100.00;100102.88;5093780;28;20072;-69
2022/12/24 06:53:22;;;;;;;3.33;1.10;;;;;;;10.62;100.00;100094.88;5094092;28;20440;-69
2022/12/24 06:55:47;;;;;;;2.72;1.08;;;;;;;10.68;100.00;100086.19;5093912;28;20346;-69
2022/12/24 06:58:13;;;;;;;4.43;1.50;;;;;;;10.64;100.00;100102.72;5093924;28;20063;-67
2022/12/24 07:00:38;;;;;;;7.47;1.90;;;;;;;10.71;100.00;100095.66;5093667;28;20032;-67
2022/12/24 07:03:04;;;;;;;3.85;1.23;;;;;;;10.73;100.00;100105.13;5093843;28;20044;-67
2022/12/24 07:05:29;;;;;;;9.88;1.92;;;;;;;10.73;100.00;100106.97;5093791;28;20052;-67
2022/12/24 07:07:55;;;;;;;1.60;0.82;;;;;;;10.65;100.00;100110.53;5093707;28;20072;-67
2022/12/24 07:10:21;;;;;;;1.77;1.00;;;;;;;10.68;100.00;100126.13;5092094;28;20048;-67
2022/12/24 07:12:47;;;;;;;7.00;1.90;;;;;;;10.70;100.00;100124.16;5093800;28;20130;-68
2022/12/24 07:15:14;;;;;;;4.47;1.65;;;;;;;10.73;100.00;100129.09;5093935;28;20141;-67
2022/12/24 07:17:39;;;;;;;2.33;1.17;;;;;;;10.73;100.00;100133.59;5093710;28;20036;-67
2022/12/24 07:20:07;;;;;;;2.00;1.17;;;;;;;10.70;100.00;100140.13;5093550;28;20143;-67
2022/12/24 07:22:33;;;;;;;2.15;1.00;;;;;;;10.70;100.00;100134.81;5092050;28;20060;-67
2022/12/24 07:24:59;;;;;;;3.55;1.52;;;;;;;10.70;100.00;100128.66;5093655;28;20166;-70
2022/12/24 07:27:24;;;;;;;7.65;1.25;;;;;;;10.70;100.00;100134.81;5091996;28;20512;-70
2022/12/24 07:29:50;;;;;;;8.90;2.58;;;;;;;10.70;100.00;100140.13;5093466;28;20058;-70
2022/12/24 07:32:15;;;;;;;6.70;1.70;;;;;;;10.69;100.00;100145.59;5091695;28;20040;-69
2022/12/24 07:34:41;;;;;;;8.23;2.08;;;;;;;10.70;100.00;100145.47;5092120;28;20418;-70
2022/12/24 07:37:07;;;;;;;6.10;2.03;;;;;;;10.66;100.00;100144.13;5091974;28;20097;-72
2022/12/24 07:39:32;;;;;;;5.65;1.75;;;;;;;10.64;100.00;100142.66;5093278;28;20039;-65
2022/12/24 07:41:58;;;;;;;6.65;1.65;;;;;;;10.67;100.00;100134.31;5092957;28;20112;-64
2022/12/24 07:44:24;;;;;;;4.50;1.40;;;;;;;10.63;100.00;100133.00;5074036;28;20059;-66
2022/12/24 07:46:49;;;;;;;2.95;1.42;;;;;;;10.63;100.00;100148.97;5075114;28;20093;-65
2022/12/24 07:49:15;;;;;;;8.18;1.55;;;;;;;10.54;100.00;100135.72;5092866;28;20047;-65
2022/12/24 07:51:40;;;;;;;7.50;1.35;;;;;;;10.59;100.00;100140.53;5091139;28;20036;-65
2022/12/24 07:54:06;;;;;;;2.95;1.33;;;;;;;10.56;100.00;100135.53;5092770;28;20062;-65
2022/12/24 07:56:32;;;;;;;5.10;1.85;;;;;;;10.56;100.00;100140.84;5074575;28;20094;-66
2022/12/24 07:58:57;;;;;;;5.97;1.73;;;;;;;10.53;100.00;100147.38;5092816;28;20062;-65
2022/12/24 08:01:22;;;;;;;6.35;1.92;;;;;;;10.53;100.00;100150.03;5091085;28;20534;-66
2022/12/24 08:03:50;;;;;;;5.55;1.00;;;;;;;10.57;100.00;100151.34;5092752;28;20043;-64
2022/12/24 08:06:15;;;;;;;6.40;1.30;;;;;;;10.58;100.00;100157.50;5092579;28;20040;-64
2022/12/24 08:08:41;;;;;;;8.75;1.80;;;;;;;10.62;100.00;100165.97;5091356;28;20040;-65
2022/12/24 08:11:06;;;;;;;3.97;1.50;;;;;;;10.62;100.00;100165.97;5092314;28;20044;-64
2022/12/24 08:13:32;;;;;;;7.43;1.70;;;;;;;10.66;100.00;100172.63;5092568;28;20124;-68
2022/12/24 08:15:58;;;;;;;5.70;1.45;;;;;;;10.65;100.00;100170.97;5092371;28;20071;-67
2022/12/24 08:18:24;;;;;;;9.57;2.13;;;;;;;10.67;100.00;100177.75;5092374;28;20078;-67
2022/12/24 08:20:49;;;;;;;4.25;1.42;;;;;;;10.67;100.00;100174.28;5091855;28;20085;-68
2022/12/24 08:23:15;;;;;;;8.85;2.05;;;;;;;10.69;100.00;100169.59;5092436;28;20521;-69
2022/12/24 08:25:42;;;;;;;5.60;1.42;;;;;;;10.71;100.00;100172.94;5092163;28;20481;-68
2022/12/24 08:28:08;;;;;;;6.33;1.80;;;;;;;10.70;100.00;100166.78;5091161;28;20039;-68
2022/12/24 08:30:33;;;;;;;8.85;1.42;;;;;;;10.72;100.00;100177.25;5090784;28;20040;-70
2022/12/24 08:32:59;;;;;;;3.97;1.33;;;;;;;10.73;100.00;100178.91;5091204;28;20043;-67
2022/12/24 08:35:24;;;;;;;3.70;1.73;;;;;;;10.72;100.00;100183.41;5091966;28;20031;-68
2022/12/24 08:37:49;;;;;;;6.20;2.05;;;;;;;10.73;100.00;100182.38;5091974;28;20373;-67
2022/12/24 08:40:15;;;;;;;1.80;0.80;;;;;;;10.71;100.00;100188.91;5091721;28;20450;-68
2022/12/24 08:42:40;;;;;;;10.05;2.97;;;;;;;10.73;100.00;100186.88;5091886;28;20043;-68
2022/12/24 08:45:06;;;;;;;7.32;1.92;;;;;;;10.76;100.00;100181.22;5090624;28;20081;-68
2022/12/24 08:47:32;;;;;;;5.15;1.45;;;;;;;10.76;100.00;100182.06;5073883;28;20120;-68
2022/12/24 08:49:57;;;;;;;5.55;1.73;;;;;;;10.79;100.00;100184.34;5092016;28;20082;-68
2022/12/24 08:52:22;;;;;;;5.95;1.85;;;;;;;10.82;100.00;100191.16;5091718;28;20036;-68
2022/12/24 08:54:48;;;;;;;6.85;1.85;;;;;;;10.83;100.00;100193.66;5091964;28;20040;-69
2022/12/24 08:57:13;;;;;;;1.27;0.82;;;;;;;10.85;99.63;100194.31;5090134;28;20562;-67
2022/12/24 08:59:39;;;;;;;6.38;1.33;;;;;;;10.85;99.30;100194.31;5073631;28;20040;-69
2022/12/24 09:02:04;;;;;;;4.25;1.58;;;;;;;10.86;99.02;100197.81;5091420;28;20036;-68
2022/12/24 09:04:30;;;;;;;4.93;1.48;;;;;;;10.88;100.00;100201.09;5091660;28;20044;-70
2022/12/24 09:06:55;;;;;;;7.45;1.65;;;;;;;10.84;99.49;100199.81;5091601;28;20396;-68
2022/12/24 09:09:21;;;;;;;6.10;1.50;;;;;;;10.86;98.98;100203.97;5091602;28;20040;-68
2022/12/24 09:11:46;;;;;;;5.80;1.60;;;;;;;10.91;98.68;100194.63;5073140;28;20032;-68
2022/12/24 09:14:12;;;;;;;7.07;1.30;;;;;;;10.91;99.23;100206.09;5091565;28;20126;-62
2022/12/24 09:16:38;;;;;;;4.20;1.50;;;;;;;10.96;98.68;100217.06;5091411;28;20035;-62
2022/12/24 09:19:03;;;;;;;6.68;2.03;;;;;;;10.94;100.00;100216.41;5091392;28;20085;-61
2022/12/24 09:21:28;;;;;;;4.55;1.70;;;;;;;10.85;100.00;100220.13;5091194;28;20039;-68
2022/12/24 09:23:54;;;;;;;4.95;1.10;;;;;;;10.80;100.00;100225.97;5091427;28;20101;-68
2022/12/24 09:26:25;;;;;;;3.75;1.33;;;;;;;10.81;100.00;100240.94;5091344;28;20044;-68
2022/12/24 09:28:52;;;;;;;6.85;1.90;;;;;;;10.71;100.00;100240.34;5091255;28;20105;-69
2022/12/24 09:31:18;;;;;;;7.32;1.50;;;;;;;10.76;100.00;100255.81;5090971;28;20107;-68
2022/12/24 09:33:45;;;;;;;7.40;2.20;;;;;;;10.69;100.00;100253.00;5091313;28;20032;-68
2022/12/24 09:36:11;;;;;;;5.97;1.55;;;;;;;10.66;100.00;100257.84;5091162;28;20035;-68
2022/12/24 09:38:39;;;;;;;2.30;1.27;;;;;;;10.50;100.00;100264.94;5090054;28;20115;-69
2022/12/24 09:41:14;;;;;;;7.65;1.45;;;;;;;10.44;100.00;100262.13;5091021;28;20024;-68
2022/12/24 09:43:46;;;;;;;5.72;1.52;;;;;;;10.34;100.00;100270.28;5090303;28;20059;-67
2022/12/24 09:46:25;;;;;;;5.47;1.48;;;;;;;10.29;100.00;100272.63;5091624;28;20042;-62
2022/12/24 09:48:56;;;;;;;4.78;1.67;;;;;;;10.16;100.00;100278.44;5090173;28;20496;-63
2022/12/24 09:51:37;;;;;;;5.90;1.45;;;;;;;10.11;100.00;100266.69;5091035;28;20378;-67
2022/12/24 09:54:10;;;;;;;4.15;1.58;;;;;;;10.08;100.00;100262.50;5091227;28;20051;-68
2022/12/24 09:56:43;;;;;;;4.28;1.92;;;;;;;10.04;100.00;100267.34;5090982;28;20036;-67
2022/12/24 09:59:13;;;;;;;14.68;5.20;;;;;;;10.04;100.00;100278.00;5089773;28;20102;-66
2022/12/24 10:01:39;;;;;;;10.00;4.15;;;;;;;10.02;100.00;100274.66;5089405;28;20055;-68
2022/12/24 10:04:13;;;;;;;6.45;1.88;;;;;;;10.00;100.00;100276.66;5089858;28;20349;-68
2022/12/24 10:07:04;;;;;;;5.95;1.55;;;;;;;9.91;100.00;100264.38;5089630;28;20040;-68
2022/12/24 10:09:50;;;;;;;6.35;2.63;;;;;;;9.97;100.00;100276.97;5094747;28;20047;-68
2022/12/24 10:12:31;;;;;;;7.97;2.03;;;;;;;9.96;100.00;100280.66;5094500;28;20191;-68
2022/12/24 10:15:44;;;;;;;5.13;1.60;;;;;;;9.95;100.00;100283.47;5094859;28;20083;-68
2022/12/24 10:18:24;;;;;;;6.47;1.67;;;;;;;9.95;100.00;100283.47;5089607;28;20044;-68
2022/12/24 10:21:01;;;;;;;3.78;1.30;;;;;;;9.96;100.00;100293.94;5094431;28;20485;-68
2022/12/24 10:23:39;;;;;;;10.52;2.13;;;;;;;9.95;100.00;100294.94;5094902;28;20398;-68
2022/12/24 10:26:25;;;;;;;5.22;1.48;;;;;;;9.96;100.00;100285.97;5093728;28;20519;-68
2022/12/24 10:28:55;;;;;;;4.50;1.13;;;;;;;9.89;100.00;100286.81;5094965;28;20047;-68
2022/12/24 10:31:34;;;;;;;8.65;1.90;;;;;;;9.88;100.00;100285.97;5094253;28;20081;-68
2022/12/24 10:34:04;;;;;;;7.47;2.30;;;;;;;9.97;100.00;100292.13;5094830;28;20031;-68
2022/12/24 10:36:30;;;;;;;9.30;3.05;;;;;;;9.96;100.00;100280.66;5094624;28;20036;-67
2022/12/24 10:38:56;;;;;;;24.85;8.32;;;;;;;10.02;100.00;100279.97;5094925;28;20024;-67
2022/12/24 10:41:25;;;;;;;8.13;3.38;;;;;;;10.03;100.00;100278.97;5093972;28;20032;-68
2022/12/24 10:43:51;;;;;;;25.50;5.97;;;;;;;10.09;100.00;100289.94;5094132;28;20393;-68
2022/12/24 10:46:23;;;;;;;5.53;2.17;;;;;;;10.06;100.00;100276.00;5094306;28;20515;-68
2022/12/24 10:48:56;;;;;;;12.27;3.78;;;;;;;10.12;100.00;100276.31;5094233;28;20024;-67
2022/12/24 10:51:51;;;;;;;5.90;2.63;;;;;;;10.18;100.00;100267.66;5093833;28;20071;-68
2022/12/24 10:54:19;;;;;;;7.10;1.83;;;;;;;10.27;100.00;100266.66;5094187;28;20036;-68
2022/12/24 10:56:49;;;;;;;3.95;2.08;;;;;;;10.38;100.00;100268.13;5094021;28;20063;-67
2022/12/24 10:59:29;;;;;;;9.90;2.15;;;;;;;10.51;100.00;100273.75;5094406;28;20747;-68
2022/12/24 11:01:57;;;;;;;12.23;2.28;;;;;;;11.00;100.00;100268.16;5094072;28;20028;-69
2022/12/24 11:04:26;;;;;;;4.50;1.70;;;;;;;11.54;100.00;100274.31;5094027;28;20036;-69
2022/12/24 11:06:52;;;;;;;7.10;2.35;;;;;;;12.41;100.00;100268.50;5093749;28;20036;-68
2022/12/24 11:09:26;;;;;;;4.93;1.50;;;;;;;13.08;100.00;100273.66;5093886;28;20044;-69
2022/12/24 11:11:52;;;;;;;4.53;1.60;;;;;;;13.58;100.00;100283.47;5093645;28;20036;-68
2022/12/24 11:14:19;;;;;;;7.07;2.17;;;;;;;13.72;100.00;100283.59;5093731;28;20401;-68
2022/12/24 11:16:55;;;;;;;3.85;1.83;;;;;;;13.64;100.00;100287.22;5093683;28;20045;-68
2022/12/24 11:19:37;;;;;;;3.88;1.48;;;;;;;13.66;100.00;100289.72;5093536;28;20039;-69
2022/12/24 11:22:15;;;;;;;8.52;1.70;;;;;;;13.74;99.44;100287.72;5091981;28;20206;-66
2022/12/24 11:24:41;;;;;;;4.38;1.85;;;;;;;13.69;98.94;100287.50;5093526;28;20093;-69
2022/12/24 11:27:46;;;;;;;8.35;1.90;;;;;;;13.43;98.99;100290.75;5093175;28;20494;-69
2022/12/24 11:30:14;;;;;;;7.78;2.03;;;;;;;13.45;97.96;100286.03;5070689;28;20520;-69
2022/12/24 11:32:44;;;;;;;5.45;2.10;;;;;;;13.15;99.24;100281.75;5084940;28;20056;-69
2022/12/24 11:35:17;;;;;;;5.35;1.88;;;;;;;13.09;100.00;100277.97;5094347;28;20419;-69
2022/12/24 11:37:43;;;;;;;6.72;2.03;;;;;;;13.32;100.00;100277.88;5093431;28;20091;-69
2022/12/24 11:40:20;;;;;;;10.40;2.75;;;;;;;13.11;100.00;100283.16;5093178;28;20024;-69
2022/12/24 11:42:51;;;;;;;3.67;1.60;;;;;;;12.98;100.00;100265.94;5093164;28;20035;-68
2022/12/24 11:45:21;;;;;;;6.82;1.95;;;;;;;13.01;100.00;100270.09;5093206;28;20040;-68
2022/12/24 11:47:47;;;;;;;6.45;2.20;;;;;;;13.05;100.00;100271.38;5093488;28;20028;-69
2022/12/24 11:50:18;;;;;;;11.25;1.85;;;;;;;13.08;100.00;100267.47;5092980;28;20569;-68
2022/12/24 11:52:48;;;;;;;13.07;2.70;;;;;;;13.19;100.00;100265.16;5092955;28;20028;-68
2022/12/24 11:55:38;;;;;;;8.32;2.20;;;;;;;13.40;100.00;100261.69;5092702;28;20472;-68
2022/12/24 11:58:29;;;;;;;14.20;3.20;;;;;;;14.01;100.00;100251.25;5092999;28;20406;-68
2022/12/24 12:01:09;;;;;;;7.05;1.70;;;;;;;14.09;97.16;100258.34;5092433;28;20032;-69
2022/12/24 12:03:41;;;;;;;10.85;1.75;;;;;;;14.62;94.88;100259.50;5092658;28;20420;-68
2022/12/24 12:06:22;;;;;;;6.25;1.48;;;;;;;15.17;90.20;100257.63;5091447;28;20426;-68
2022/12/24 12:08:53;;;;;;;5.22;1.67;;;;;;;15.25;90.08;100256.59;5092662;28;20393;-65
2022/12/24 12:11:19;;;;;;;5.40;1.73;;;;;;;15.21;87.57;100255.38;5092515;28;20036;-68
2022/12/24 12:13:46;;;;;;;3.60;1.40;;;;;;;14.98;89.86;100262.94;5092598;28;20035;-67
2022/12/24 12:16:22;;;;;;;7.33;2.20;;;;;;;14.52;88.42;100267.06;5092342;28;20071;-67
2022/12/24 12:19:09;;;;;;;4.95;1.48;;;;;;;14.10;90.40;100265.34;5092483;28;20393;-66
2022/12/24 12:21:42;;;;;;;3.78;1.75;;;;;;;13.75;92.90;100265.28;5092014;28;20512;-66
2022/12/24 12:24:21;;;;;;;5.82;1.50;;;;;;;14.03;92.73;100276.03;5092351;28;20043;-68
2022/12/24 12:26:56;;;;;;;5.38;2.25;;;;;;;14.15;91.89;100272.78;5092277;28;20067;-69
2022/12/24 12:29:30;;;;;;;6.18;1.90;;;;;;;14.33;88.65;100287.34;5092325;28;20040;-69
2022/12/24 12:32:03;;;;;;;6.72;2.10;;;;;;;14.26;88.35;100274.94;5091396;28;20062;-68
2022/12/24 12:34:50;;;;;;;6.68;2.13;;;;;;;14.30;89.60;100277.03;5092267;28;20165;-69
2022/12/24 12:37:37;;;;;;;8.32;2.70;;;;;;;14.04;91.15;100282.22;5092174;28;20035;-68
2022/12/24 12:40:03;;;;;;;4.78;1.80;;;;;;;13.70;91.79;100280.28;5091936;28;20028;-68
2022/12/24 12:42:36;;;;;;;3.47;1.50;;;;;;;13.66;92.27;100277.16;5092140;28;20036;-69
2022/12/24 12:45:14;;;;;;;3.33;1.52;;;;;;;13.30;93.11;100267.38;5092170;28;20044;-68
2022/12/24 12:48:00;;;;;;;6.72;1.77;;;;;;;13.16;95.39;100264.69;5092135;28;20358;-68
2022/12/24 12:50:32;;;;;;;9.00;2.05;;;;;;;13.03;94.57;100276.88;5091895;28;20040;-68
2022/12/24 12:53:24;;;;;;;7.13;1.92;;;;;;;13.01;95.44;100270.91;5092049;28;20032;-68
2022/12/24 12:56:07;;;;;;;5.35;2.10;;;;;;;12.93;95.86;100267.53;5083376;28;20048;-69
2022/12/24 12:58:38;;;;;;;3.97;1.33;;;;;;;12.81;96.69;100271.69;5091284;28;20122;-68
2022/12/24 13:01:19;;;;;;;6.15;2.00;;;;;;;12.82;96.95;100265.34;5092415;28;20055;-68
2022/12/24 13:04:08;;;;;;;3.92;1.58;;;;;;;12.89;96.42;100266.22;5092095;28;20035;-68
2022/12/24 13:06:57;;;;;;;10.30;1.88;;;;;;;13.04;95.96;100262.53;5091934;28;20389;-68
2022/12/24 13:09:39;;;;;;;2.88;1.30;;;;;;;13.25;96.53;100264.44;5091672;28;20587;-66
2022/12/24 13:12:36;;;;;;;4.22;1.25;;;;;;;13.38;96.49;100270.94;5085764;28;20030;-68
2022/12/24 13:15:22;;;;;;;6.70;1.25;;;;;;;13.53;92.42;100272.50;5081081;28;20031;-67
2022/12/24 13:18:32;;;;;;;8.65;1.85;;;;;;;13.58;93.90;100274.63;5082304;28;20388;-67
2022/12/24 13:20:58;;;;;;;8.63;1.73;;;;;;;13.54;94.07;100270.66;5080817;28;20533;-67
2022/12/24 13:23:26;;;;;;;4.25;1.52;;;;;;;13.43;92.78;100273.84;5054384;28;20120;-67
2022/12/24 13:25:57;;;;;;;10.40;1.88;;;;;;;13.37;92.10;100259.41;5079790;28;20042;-67
2022/12/24 13:28:22;;;;;;;9.65;2.70;;;;;;;13.29;92.37;100263.00;5080675;28;20036;-66
2022/12/24 13:31:12;;;;;;;4.47;1.67;;;;;;;13.23;92.69;100265.63;5081890;28;20051;-67
2022/12/24 13:33:37;;;;;;;5.10;1.27;;;;;;;13.17;93.35;100269.00;5080721;28;20028;-67
2022/12/24 13:36:04;;;;;;;12.32;3.13;;;;;;;13.22;94.97;100270.13;5079224;28;20488;-68
2022/12/24 13:38:32;;;;;;;11.57;2.13;;;;;;;13.15;93.41;100266.53;5081995;28;20027;-67
2022/12/24 13:41:35;;;;;;;7.70;1.75;;;;;;;12.92;94.47;100257.84;5080446;28;20024;-67
2022/12/24 13:44:11;;;;;;;10.90;2.17;;;;;;;13.03;95.80;100257.34;5085675;28;20120;-67
2022/12/24 13:47:17;;;;;;;2.35;1.58;;;;;;;13.01;95.78;100252.19;5084529;28;20028;-66
2022/12/24 13:49:52;;;;;;;5.38;2.28;;;;;;;12.90;96.96;100251.84;5084776;28;20141;-67
2022/12/24 13:52:22;;;;;;;5.18;1.85;;;;;;;12.87;96.08;100247.72;5084434;28;20381;-67
2022/12/24 13:54:53;;;;;;;11.10;2.75;;;;;;;12.79;95.51;100252.34;5083553;28;20047;-66
2022/12/24 13:57:35;;;;;;;9.57;2.10;;;;;;;12.76;95.18;100242.84;5086690;28;20040;-66
2022/12/24 14:00:05;;;;;;;7.05;2.28;;;;;;;12.75;96.82;100250.03;5090188;28;20024;-67
2022/12/24 14:02:47;;;;;;;9.73;2.63;;;;;;;12.69;95.52;100250.78;5083264;28;20066;-66
2022/12/24 14:05:29;;;;;;;6.45;2.47;;;;;;;12.69;96.10;100250.78;5069224;28;20120;-67
2022/12/24 14:07:56;;;;;;;7.47;1.73;;;;;;;12.66;96.10;100251.16;5084351;28;20031;-67
2022/12/24 14:10:25;;;;;;;9.50;2.07;;;;;;;12.56;95.90;100257.81;5081459;28;20068;-67
2022/12/24 14:12:52;;;;;;;9.10;1.73;;;;;;;12.50;95.06;100246.84;5083360;28;20112;-67
2022/12/24 14:16:03;;;;;;;7.07;2.28;;;;;;;12.46;95.44;100240.22;5083337;28;20044;-66
2022/12/24 14:18:32;;;;;;;2.90;1.73;;;;;;;12.42;95.75;100238.09;5081000;28;20047;-67
2022/12/24 14:21:00;;;;;;;3.60;2.05;;;;;;;12.46;95.33;100232.22;5082817;28;20052;-68
2022/12/24 14:23:50;;;;;;;7.20;1.67;;;;;;;12.44;95.44;100228.06;5083949;28;20179;-67
2022/12/24 14:26:23;;;;;;;9.27;2.22;;;;;;;12.38;95.97;100232.28;5085109;28;20041;-67
2022/12/24 14:28:55;;;;;;;6.55;3.20;;;;;;;12.35;95.50;100238.03;5077152;28;20037;-67
2022/12/24 14:31:21;;;;;;;5.47;1.92;;;;;;;12.33;95.01;100252.59;5073812;28;20040;-67
2022/12/24 14:33:47;;;;;;;4.72;2.00;;;;;;;12.30;95.87;100252.94;5087685;28;20031;-68
2022/12/24 14:36:17;;;;;;;19.80;3.50;;;;;;;12.15;95.08;100253.75;5094306;28;20106;-67
2022/12/24 14:38:44;;;;;;;7.15;2.10;;;;;;;12.17;95.96;100261.59;5087140;28;20424;-67
2022/12/24 14:41:48;;;;;;;10.85;2.17;;;;;;;12.11;95.43;100259.66;5094312;28;20032;-67
2022/12/24 14:44:40;;;;;;;12.98;2.65;;;;;;;12.00;96.05;100257.41;5088540;28;20036;-68
2022/12/24 14:47:28;;;;;;;11.18;2.88;;;;;;;11.90;97.38;100263.03;5094028;28;20452;-67
2022/12/24 14:50:18;;;;;;;4.13;1.73;;;;;;;11.85;97.44;100247.53;5081074;28;20028;-67
2022/12/24 14:53:06;;;;;;;8.27;2.35;;;;;;;11.82;99.23;100252.44;5094291;28;20046;-67
2022/12/24 14:55:40;;;;;;;9.70;2.83;;;;;;;11.79;99.65;100245.56;5073735;28;20094;-67
2022/12/24 14:58:32;;;;;;;7.75;2.30;;;;;;;11.77;99.70;100250.28;5072568;28;20067;-68
2022/12/24 15:01:00;;;;;;;12.48;3.35;;;;;;;11.74;99.64;100250.66;5073413;28;20052;-67
2022/12/24 15:03:30;;;;;;;12.48;2.95;;;;;;;11.73;100.00;100261.47;5073615;28;20389;-66
2022/12/24 15:06:02;;;;;;;10.88;3.75;;;;;;;11.62;100.00;100276.91;5072302;28;20032;-68
2022/12/24 15:08:42;;;;;;;10.70;3.25;;;;;;;11.61;100.00;100277.94;5073482;28;20393;-68
2022/12/24 15:11:14;;;;;;;7.40;3.63;;;;;;;11.63;100.00;100277.75;5073013;28;20037;-69
2022/12/24 15:13:45;;;;;;;9.90;3.22;;;;;;;11.63;100.00;100283.91;5073895;28;20036;-69
2022/12/24 15:16:17;;;;;;;11.00;3.40;;;;;;;11.59;100.00;100274.59;5080357;28;20504;-69
2022/12/24 15:18:49;;;;;;;10.13;3.42;;;;;;;11.55;100.00;100275.16;5093639;28;20100;-69
2022/12/24 15:21:19;;;;;;;10.38;3.05;;;;;;;11.48;100.00;100283.03;5092777;28;20035;-69
2022/12/24 15:23:48;;;;;;;11.68;2.50;;;;;;;11.41;100.00;100287.44;5093424;28;20047;-69
2022/12/24 15:26:22;;;;;;;11.88;2.92;;;;;;;11.37;100.00;100291.44;5093529;28;20032;-69
2022/12/24 15:28:49;;;;;;;5.13;2.00;;;;;;;11.31;100.00;100295.66;5093274;28;20038;-70
2022/12/24 15:31:19;;;;;;;9.13;2.75;;;;;;;11.29;100.00;100295.00;5092857;28;20032;-69
2022/12/24 15:33:49;;;;;;;9.63;2.72;;;;;;;11.25;100.00;100290.19;5090115;28;20036;-69
2022/12/24 15:36:22;;;;;;;8.38;2.30;;;;;;;11.18;100.00;100287.41;5098105;28;20050;-69
2022/12/24 15:38:52;;;;;;;9.20;2.10;;;;;;;11.16;100.00;100293.91;5093036;28;20500;-69
2022/12/24 15:41:22;;;;;;;4.90;2.50;;;;;;;11.13;100.00;100287.91;5090411;28;20020;-69
2022/12/24 15:43:50;;;;;;;7.97;2.30;;;;;;;11.09;100.00;100297.28;5092851;28;20047;-69
2022/12/24 15:46:26;;;;;;;7.32;2.53;;;;;;;11.01;100.00;100286.66;5093017;28;20224;-69
2022/12/24 15:48:55;;;;;;;10.70;2.47;;;;;;;11.09;100.00;100299.13;5092544;28;20044;-69
2022/12/24 15:51:29;;;;;;;3.38;1.67;;;;;;;11.08;100.00;100292.97;5092358;28;20036;-69
2022/12/24 15:54:01;;;;;;;5.07;2.20;;;;;;;11.04;100.00;100296.97;5091384;28;20046;-69
2022/12/24 15:56:31;;;;;;;5.63;2.40;;;;;;;11.01;100.00;100291.97;5092662;28;20044;-69
2022/12/24 15:59:22;;;;;;;7.25;2.45;;;;;;;11.07;100.00;100298.44;5091470;28;20020;-69
2022/12/24 16:01:48;;;;;;;10.63;2.83;;;;;;;11.02;100.00;100299.00;5091762;28;20047;-69
2022/12/24 16:04:16;;;;;;;5.03;2.30;;;;;;;11.01;100.00;100302.63;5091004;28;20020;-69
2022/12/24 16:07:00;;;;;;;4.15;2.00;;;;;;;10.99;100.00;100314.50;5091738;28;20032;-69
2022/12/24 16:09:41;;;;;;;11.25;2.45;;;;;;;10.99;100.00;100310.00;5092533;28;20036;-69
2022/12/24 16:12:23;;;;;;;4.97;1.90;;;;;;;10.96;100.00;100304.19;5091437;28;20039;-69
2022/12/24 16:14:53;;;;;;;28.10;13.95;;;;;;;10.95;100.00;100297.19;5092788;28;20495;-68
2022/12/24 16:17:22;;;;;;;47.83;21.02;;;;;;;10.94;100.00;100299.00;5092204;28;20468;-69
2022/12/24 16:19:51;;;;;;;11.82;3.72;;;;;;;10.92;100.00;100301.03;5092396;28;20078;-68
2022/12/24 16:22:31;;;;;;;14.18;4.32;;;;;;;10.92;100.00;100316.19;5091082;28;20654;-69
2022/12/24 16:25:23;;;;;;;33.92;12.43;;;;;;;10.93;100.00;100315.19;5091666;28;20040;-69
2022/12/24 16:27:52;;;;;;;184.75;74.80;;;;;;;10.91;100.00;100333.19;5091672;28;20055;-70
2022/12/24 16:30:19;;;;;;;27.67;10.15;;;;;;;10.83;100.00;100323.41;5091480;28;20036;-68
2022/12/24 16:32:46;;;;;;;64.15;27.13;;;;;;;10.88;100.00;100334.34;5091772;28;20438;-69
2022/12/24 16:35:26;;;;;;;12.50;5.13;;;;;;;10.81;100.00;100333.38;5091979;28;20039;-69
2022/12/24 16:37:52;;;;;;;11.10;5.35;;;;;;;10.79;100.00;100330.91;5090743;28;20518;-69
2022/12/24 16:40:18;;;;;;;9.63;4.35;;;;;;;10.74;100.00;100324.41;5091285;28;20069;-69
2022/12/24 16:45:29;;;;;;;16.88;6.75;;;;;;;10.71;100.00;100320.28;5091830;28;20059;-69
2022/12/24 16:47:58;;;;;;;14.82;4.35;;;;;;;10.73;100.00;100320.09;5073905;28;20044;-69
2022/12/24 16:50:24;;;;;;;15.48;4.78;;;;;;;10.76;100.00;100315.28;5089942;28;20040;-69
2022/12/24 16:52:49;;;;;;;11.35;4.50;;;;;;;10.72;100.00;100313.13;5083402;28;20024;-68
2022/12/24 16:55:15;;;;;;;11.15;3.65;;;;;;;10.72;100.00;100319.28;5091654;28;20032;-68
2022/12/24 16:57:42;;;;;;;7.57;3.97;;;;;;;10.69;100.00;100318.78;5089823;28;20044;-69
2022/12/24 17:00:13;;;;;;;7.07;4.00;;;;;;;10.69;100.00;100324.09;5091780;28;20024;-70
2022/12/24 17:02:38;;;;;;;11.27;3.90;;;;;;;10.69;100.00;100334.75;5091344;28;20062;-69
2022/12/24 17:05:05;;;;;;;10.90;4.45;;;;;;;10.63;100.00;100322.13;5091470;28;20634;-68
2022/12/24 17:07:30;;;;;;;10.23;5.30;;;;;;;10.66;100.00;100330.63;5091401;28;20040;-68
2022/12/24 17:09:55;;;;;;;7.97;4.55;;;;;;;10.65;100.00;100333.47;5091478;28;20028;-69